sensor_id;sensor_type;location;lat;lon;timestamp;temperature;humidity
8850;DHT22;5638;50.860;4.698;2023-01-05T00:01:03;13.20;99.90
8850;DHT22;5638;50.860;4.698;2023-01-05T00:03:31;13.30;99.90
8850;DHT22;5638;50.860;4.698;2023-01-05T00:05:59;13.30;99.90
8850;DHT22;5638;50.860;4.698;2023-01-05T00:08:26;13.40;99.90
8850;DHT22;5638;50.860;4.698;2023-01-05T00:10:52;13.30;99.90
8850;DHT22;5638;50.860;4.698;2023-01-05T00:13:36;13.40;99.90
8850;DHT22;5638;50.860;4.698;2023-01-05T00:16:21;13.40;99.90
8850;DHT22;5638;50.860;4.698;2023-01-05T00:19:11;13.40;99.90
8850;DHT22;5638;50.860;4.698;2023-01-05T00:21:56;13.30;99.90
8850;DHT22;5638;50.860;4.698;2023-01-05T00:24:41;13.40;99.90
8850;DHT22;5638;50.860;4.698;2023-01-05T00:27:07;13.30;99.90
8850;DHT22;5638;50.860;4.698;2023-01-05T00:29:32;13.30;99.90
8850;DHT22;5638;50.860;4.698;2023-01-05T00:31:58;13.30;99.90
8850;DHT22;5638;50.860;4.698;2023-01-05T00:34:24;13.30;99.90
8850;DHT22;5638;50.860;4.698;2023-01-05T00:36:50;13.30;99.90
8850;DHT22;5638;50.860;4.698;2023-01-05T00:39:16;13.30;99.90
8850;DHT22;5638;50.860;4.698;2023-01-05T00:41:41;13.20;99.90
8850;DHT22;5638;50.860;4.698;2023-01-05T00:44:07;13.20;99.90
8850;DHT22;5638;50.860;4.698;2023-01-05T00:46:33;13.10;99.90
8850;DHT22;5638;50.860;4.698;2023-01-05T00:48:59;13.10;99.90
8850;DHT22;5638;50.860;4.698;2023-01-05T00:51:25;13.20;99.90
8850;DHT22;5638;50.860;4.698;2023-01-05T00:53:51;13.20;99.90
8850;DHT22;5638;50.860;4.698;2023-01-05T00:56:17;13.20;99.90
8850;DHT22;5638;50.860;4.698;2023-01-05T00:58:42;13.30;99.90
8850;DHT22;5638;50.860;4.698;2023-01-05T01:01:10;13.40;99.90
8850;DHT22;5638;50.860;4.698;2023-01-05T01:03:37;13.30;99.90
8850;DHT22;5638;50.860;4.698;2023-01-05T01:06:03;13.30;99.90
8850;DHT22;5638;50.860;4.698;2023-01-05T01:08:29;13.30;99.90
8850;DHT22;5638;50.860;4.698;2023-01-05T01:10:55;13.40;99.90
8850;DHT22;5638;50.860;4.698;2023-01-05T01:13:23;13.30;99.90
8850;DHT22;5638;50.860;4.698;2023-01-05T01:15:49;13.30;99.90
8850;DHT22;5638;50.860;4.698;2023-01-05T01:18:15;13.30;99.90
8850;DHT22;5638;50.860;4.698;2023-01-05T01:20:41;13.10;99.90
8850;DHT22;5638;50.860;4.698;2023-01-05T01:23:07;13.10;99.90
8850;DHT22;5638;50.860;4.698;2023-01-05T01:25:33;13.20;99.90
8850;DHT22;5638;50.860;4.698;2023-01-05T01:27:59;13.20;99.90
8850;DHT22;5638;50.860;4.698;2023-01-05T01:30:25;13.20;99.90
8850;DHT22;5638;50.860;4.698;2023-01-05T01:32:51;13.20;99.90
8850;DHT22;5638;50.860;4.698;2023-01-05T01:35:17;13.10;99.90
8850;DHT22;5638;50.860;4.698;2023-01-05T01:37:43;13.00;99.90
8850;DHT22;5638;50.860;4.698;2023-01-05T01:40:09;13.00;99.90
8850;DHT22;5638;50.860;4.698;2023-01-05T01:42:35;13.00;99.90
8850;DHT22;5638;50.860;4.698;2023-01-05T01:45:14;13.00;99.90
8850;DHT22;5638;50.860;4.698;2023-01-05T01:47:54;12.90;99.90
8850;DHT22;5638;50.860;4.698;2023-01-05T01:50:32;12.90;99.90
8850;DHT22;5638;50.860;4.698;2023-01-05T01:53:04;12.80;99.90
8850;DHT22;5638;50.860;4.698;2023-01-05T01:55:36;12.70;99.90
8850;DHT22;5638;50.860;4.698;2023-01-05T01:58:07;12.60;99.90
8850;DHT22;5638;50.860;4.698;2023-01-05T02:00:39;12.70;99.90
8850;DHT22;5638;50.860;4.698;2023-01-05T02:03:06;12.90;99.90
8850;DHT22;5638;50.860;4.698;2023-01-05T02:05:33;12.80;99.90
8850;DHT22;5638;50.860;4.698;2023-01-05T02:08:03;12.70;99.90
8850;DHT22;5638;50.860;4.698;2023-01-05T02:19:28;13.00;99.90
8850;DHT22;5638;50.860;4.698;2023-01-05T02:28:10;13.10;99.90
8850;DHT22;5638;50.860;4.698;2023-01-05T02:36:41;13.10;99.90
8850;DHT22;5638;50.860;4.698;2023-01-05T02:42:12;13.20;99.90
8850;DHT22;5638;50.860;4.698;2023-01-05T02:44:43;13.00;99.90
8850;DHT22;5638;50.860;4.698;2023-01-05T02:50:00;13.10;99.90
8850;DHT22;5638;50.860;4.698;2023-01-05T02:52:43;13.10;99.90
8850;DHT22;5638;50.860;4.698;2023-01-05T02:55:13;13.00;99.90
8850;DHT22;5638;50.860;4.698;2023-01-05T02:58:01;13.10;99.90
8850;DHT22;5638;50.860;4.698;2023-01-05T03:00:39;13.10;99.90
8850;DHT22;5638;50.860;4.698;2023-01-05T03:03:10;13.10;99.90
8850;DHT22;5638;50.860;4.698;2023-01-05T03:05:48;13.20;99.90
8850;DHT22;5638;50.860;4.698;2023-01-05T03:08:20;13.20;99.90
8850;DHT22;5638;50.860;4.698;2023-01-05T03:11:06;13.30;99.90
8850;DHT22;5638;50.860;4.698;2023-01-05T03:14:25;13.30;99.90
8850;DHT22;5638;50.860;4.698;2023-01-05T03:17:06;13.30;99.90
8850;DHT22;5638;50.860;4.698;2023-01-05T03:19:36;13.30;99.90
8850;DHT22;5638;50.860;4.698;2023-01-05T03:22:24;13.30;99.90
8850;DHT22;5638;50.860;4.698;2023-01-05T03:25:13;13.30;99.90
8850;DHT22;5638;50.860;4.698;2023-01-05T03:28:02;13.40;99.90
8850;DHT22;5638;50.860;4.698;2023-01-05T03:34:00;13.40;99.90
8850;DHT22;5638;50.860;4.698;2023-01-05T03:37:00;13.40;99.90
8850;DHT22;5638;50.860;4.698;2023-01-05T03:39:30;13.30;99.90
8850;DHT22;5638;50.860;4.698;2023-01-05T03:41:59;13.30;99.90
8850;DHT22;5638;50.860;4.698;2023-01-05T03:44:25;13.20;99.90
8850;DHT22;5638;50.860;4.698;2023-01-05T03:46:51;13.10;99.90
8850;DHT22;5638;50.860;4.698;2023-01-05T03:49:17;13.00;99.90
8850;DHT22;5638;50.860;4.698;2023-01-05T03:51:43;13.10;99.90
8850;DHT22;5638;50.860;4.698;2023-01-05T03:54:09;13.20;99.90
8850;DHT22;5638;50.860;4.698;2023-01-05T03:56:34;13.30;99.90
8850;DHT22;5638;50.860;4.698;2023-01-05T03:59:00;13.20;99.90
8850;DHT22;5638;50.860;4.698;2023-01-05T04:01:26;13.10;99.90
8850;DHT22;5638;50.860;4.698;2023-01-05T04:03:52;13.10;99.90
8850;DHT22;5638;50.860;4.698;2023-01-05T04:06:18;13.20;99.90
8850;DHT22;5638;50.860;4.698;2023-01-05T04:08:44;13.30;99.90
8850;DHT22;5638;50.860;4.698;2023-01-05T04:11:18;13.30;99.90
8850;DHT22;5638;50.860;4.698;2023-01-05T04:13:46;13.20;99.90
8850;DHT22;5638;50.860;4.698;2023-01-05T04:16:12;13.10;99.90
8850;DHT22;5638;50.860;4.698;2023-01-05T04:18:39;13.10;99.90
8850;DHT22;5638;50.860;4.698;2023-01-05T04:21:05;13.10;99.90
8850;DHT22;5638;50.860;4.698;2023-01-05T04:23:32;13.10;99.90
8850;DHT22;5638;50.860;4.698;2023-01-05T04:25:59;13.10;99.90
8850;DHT22;5638;50.860;4.698;2023-01-05T04:28:25;13.20;99.90
8850;DHT22;5638;50.860;4.698;2023-01-05T04:30:54;13.30;99.90
8850;DHT22;5638;50.860;4.698;2023-01-05T04:33:21;13.40;99.90
8850;DHT22;5638;50.860;4.698;2023-01-05T04:35:49;13.30;99.90
8850;DHT22;5638;50.860;4.698;2023-01-05T04:38:15;13.20;99.90
8850;DHT22;5638;50.860;4.698;2023-01-05T04:40:49;13.20;99.90
8850;DHT22;5638;50.860;4.698;2023-01-05T04:43:17;13.20;99.90
8850;DHT22;5638;50.860;4.698;2023-01-05T04:45:47;13.30;99.90
8850;DHT22;5638;50.860;4.698;2023-01-05T04:48:14;13.40;99.90
8850;DHT22;5638;50.860;4.698;2023-01-05T04:50:41;13.40;99.90
8850;DHT22;5638;50.860;4.698;2023-01-05T04:53:07;13.30;99.90
8850;DHT22;5638;50.860;4.698;2023-01-05T04:55:33;13.20;99.90
8850;DHT22;5638;50.860;4.698;2023-01-05T04:57:59;13.20;99.90
8850;DHT22;5638;50.860;4.698;2023-01-05T05:00:25;13.30;99.90
8850;DHT22;5638;50.860;4.698;2023-01-05T05:02:51;13.30;99.90
8850;DHT22;5638;50.860;4.698;2023-01-05T05:05:16;13.30;99.90
8850;DHT22;5638;50.860;4.698;2023-01-05T05:07:42;13.20;99.90
8850;DHT22;5638;50.860;4.698;2023-01-05T05:10:08;13.20;99.90
8850;DHT22;5638;50.860;4.698;2023-01-05T05:12:34;13.20;99.90
8850;DHT22;5638;50.860;4.698;2023-01-05T05:15:00;13.10;99.90
8850;DHT22;5638;50.860;4.698;2023-01-05T05:17:26;13.20;99.90
8850;DHT22;5638;50.860;4.698;2023-01-05T05:19:52;13.10;99.90
8850;DHT22;5638;50.860;4.698;2023-01-05T05:22:17;13.20;99.90
8850;DHT22;5638;50.860;4.698;2023-01-05T05:24:43;13.20;99.90
8850;DHT22;5638;50.860;4.698;2023-01-05T05:27:09;13.20;99.90
8850;DHT22;5638;50.860;4.698;2023-01-05T05:29:35;13.10;99.90
8850;DHT22;5638;50.860;4.698;2023-01-05T05:32:01;13.10;99.90
8850;DHT22;5638;50.860;4.698;2023-01-05T05:34:26;13.10;99.90
8850;DHT22;5638;50.860;4.698;2023-01-05T05:36:52;13.00;99.90
8850;DHT22;5638;50.860;4.698;2023-01-05T05:39:18;13.00;99.90
8850;DHT22;5638;50.860;4.698;2023-01-05T05:41:45;13.10;99.90
8850;DHT22;5638;50.860;4.698;2023-01-05T05:44:10;13.00;99.90
8850;DHT22;5638;50.860;4.698;2023-01-05T05:46:36;13.00;99.90
8850;DHT22;5638;50.860;4.698;2023-01-05T05:49:02;12.90;99.90
8850;DHT22;5638;50.860;4.698;2023-01-05T05:51:29;13.00;99.90
8850;DHT22;5638;50.860;4.698;2023-01-05T05:53:56;12.90;99.90
8850;DHT22;5638;50.860;4.698;2023-01-05T05:56:21;12.90;99.90
8850;DHT22;5638;50.860;4.698;2023-01-05T05:58:47;12.90;99.90
8850;DHT22;5638;50.860;4.698;2023-01-05T06:01:13;12.90;99.90
8850;DHT22;5638;50.860;4.698;2023-01-05T06:03:39;12.90;99.90
8850;DHT22;5638;50.860;4.698;2023-01-05T06:06:05;13.00;99.90
8850;DHT22;5638;50.860;4.698;2023-01-05T06:08:31;13.00;99.90
8850;DHT22;5638;50.860;4.698;2023-01-05T06:10:57;13.10;99.90
8850;DHT22;5638;50.860;4.698;2023-01-05T06:13:23;13.00;99.90
8850;DHT22;5638;50.860;4.698;2023-01-05T06:15:49;13.10;99.90
8850;DHT22;5638;50.860;4.698;2023-01-05T06:18:16;13.10;99.90
8850;DHT22;5638;50.860;4.698;2023-01-05T06:20:42;13.00;99.90
8850;DHT22;5638;50.860;4.698;2023-01-05T06:23:08;13.00;99.90
8850;DHT22;5638;50.860;4.698;2023-01-05T06:25:34;13.10;99.90
8850;DHT22;5638;50.860;4.698;2023-01-05T06:28:00;13.10;99.90
8850;DHT22;5638;50.860;4.698;2023-01-05T06:30:27;13.10;99.90
8850;DHT22;5638;50.860;4.698;2023-01-05T06:32:54;13.10;99.90
8850;DHT22;5638;50.860;4.698;2023-01-05T06:35:20;13.00;99.90
8850;DHT22;5638;50.860;4.698;2023-01-05T06:37:46;13.00;99.90
8850;DHT22;5638;50.860;4.698;2023-01-05T06:40:12;13.00;99.90
8850;DHT22;5638;50.860;4.698;2023-01-05T06:42:39;13.00;99.90
8850;DHT22;5638;50.860;4.698;2023-01-05T06:45:06;13.00;99.90
8850;DHT22;5638;50.860;4.698;2023-01-05T06:47:34;13.00;99.90
8850;DHT22;5638;50.860;4.698;2023-01-05T06:50:00;13.00;99.90
8850;DHT22;5638;50.860;4.698;2023-01-05T06:52:26;13.10;99.90
8850;DHT22;5638;50.860;4.698;2023-01-05T06:54:51;13.00;99.90
8850;DHT22;5638;50.860;4.698;2023-01-05T06:57:17;13.10;99.90
8850;DHT22;5638;50.860;4.698;2023-01-05T06:59:43;13.20;99.90
8850;DHT22;5638;50.860;4.698;2023-01-05T07:02:14;13.10;99.90
8850;DHT22;5638;50.860;4.698;2023-01-05T07:04:41;13.00;99.90
8850;DHT22;5638;50.860;4.698;2023-01-05T07:07:11;13.10;99.90
8850;DHT22;5638;50.860;4.698;2023-01-05T07:09:38;13.00;99.90
8850;DHT22;5638;50.860;4.698;2023-01-05T07:12:05;13.00;99.90
8850;DHT22;5638;50.860;4.698;2023-01-05T07:14:31;13.00;99.90
8850;DHT22;5638;50.860;4.698;2023-01-05T07:16:57;13.20;99.90
8850;DHT22;5638;50.860;4.698;2023-01-05T07:19:23;13.20;99.90
8850;DHT22;5638;50.860;4.698;2023-01-05T07:21:49;13.10;99.90
8850;DHT22;5638;50.860;4.698;2023-01-05T07:24:15;13.10;99.90
8850;DHT22;5638;50.860;4.698;2023-01-05T07:26:40;13.10;99.90
8850;DHT22;5638;50.860;4.698;2023-01-05T07:29:06;13.10;99.90
8850;DHT22;5638;50.860;4.698;2023-01-05T07:31:32;13.00;99.90
8850;DHT22;5638;50.860;4.698;2023-01-05T07:33:58;13.00;99.90
8850;DHT22;5638;50.860;4.698;2023-01-05T07:36:24;13.10;99.90
8850;DHT22;5638;50.860;4.698;2023-01-05T07:38:51;13.20;99.90
8850;DHT22;5638;50.860;4.698;2023-01-05T07:41:17;13.20;99.90
8850;DHT22;5638;50.860;4.698;2023-01-05T07:43:47;13.10;99.90
8850;DHT22;5638;50.860;4.698;2023-01-05T07:46:13;13.10;99.90
8850;DHT22;5638;50.860;4.698;2023-01-05T07:48:40;13.10;99.90
8850;DHT22;5638;50.860;4.698;2023-01-05T07:51:06;13.10;99.90
8850;DHT22;5638;50.860;4.698;2023-01-05T07:53:34;13.00;99.90
8850;DHT22;5638;50.860;4.698;2023-01-05T07:56:04;13.00;99.90
8850;DHT22;5638;50.860;4.698;2023-01-05T07:58:31;13.10;99.90
8850;DHT22;5638;50.860;4.698;2023-01-05T08:01:19;13.10;99.90
8850;DHT22;5638;50.860;4.698;2023-01-05T08:03:45;13.20;99.90
8850;DHT22;5638;50.860;4.698;2023-01-05T08:06:16;13.10;99.90
8850;DHT22;5638;50.860;4.698;2023-01-05T08:08:44;13.10;99.90
8850;DHT22;5638;50.860;4.698;2023-01-05T08:11:12;13.10;99.90
8850;DHT22;5638;50.860;4.698;2023-01-05T08:13:41;13.20;99.90
8850;DHT22;5638;50.860;4.698;2023-01-05T08:16:30;13.30;99.90
8850;DHT22;5638;50.860;4.698;2023-01-05T08:18:58;13.20;99.90
8850;DHT22;5638;50.860;4.698;2023-01-05T08:21:24;13.10;99.90
8850;DHT22;5638;50.860;4.698;2023-01-05T08:23:50;13.10;99.90
8850;DHT22;5638;50.860;4.698;2023-01-05T08:26:21;13.10;99.90
8850;DHT22;5638;50.860;4.698;2023-01-05T08:28:49;12.90;99.90
8850;DHT22;5638;50.860;4.698;2023-01-05T08:31:19;12.80;99.90
8850;DHT22;5638;50.860;4.698;2023-01-05T08:33:49;12.80;99.90
8850;DHT22;5638;50.860;4.698;2023-01-05T08:36:18;12.90;99.90
8850;DHT22;5638;50.860;4.698;2023-01-05T08:38:46;13.00;99.90
8850;DHT22;5638;50.860;4.698;2023-01-05T08:41:24;12.90;99.90
8850;DHT22;5638;50.860;4.698;2023-01-05T08:43:55;12.90;99.90
8850;DHT22;5638;50.860;4.698;2023-01-05T08:46:26;13.00;99.90
8850;DHT22;5638;50.860;4.698;2023-01-05T08:48:56;13.10;99.90
8850;DHT22;5638;50.860;4.698;2023-01-05T08:51:23;13.10;99.90
8850;DHT22;5638;50.860;4.698;2023-01-05T08:53:49;13.10;99.90
8850;DHT22;5638;50.860;4.698;2023-01-05T08:56:15;13.10;99.90
8850;DHT22;5638;50.860;4.698;2023-01-05T08:58:41;13.10;99.90
8850;DHT22;5638;50.860;4.698;2023-01-05T09:01:09;12.90;99.90
8850;DHT22;5638;50.860;4.698;2023-01-05T09:03:37;13.00;99.90
8850;DHT22;5638;50.860;4.698;2023-01-05T09:06:04;13.20;99.90
8850;DHT22;5638;50.860;4.698;2023-01-05T09:08:33;13.10;99.90
8850;DHT22;5638;50.860;4.698;2023-01-05T09:13:49;13.20;99.90
8850;DHT22;5638;50.860;4.698;2023-01-05T09:16:18;13.20;99.90
8850;DHT22;5638;50.860;4.698;2023-01-05T09:18:46;13.20;99.90
8850;DHT22;5638;50.860;4.698;2023-01-05T09:21:12;13.30;99.90
8850;DHT22;5638;50.860;4.698;2023-01-05T09:23:39;13.30;99.90
8850;DHT22;5638;50.860;4.698;2023-01-05T09:26:07;13.40;99.90
8850;DHT22;5638;50.860;4.698;2023-01-05T09:28:34;13.40;99.90
8850;DHT22;5638;50.860;4.698;2023-01-05T09:31:13;13.30;99.90
8850;DHT22;5638;50.860;4.698;2023-01-05T09:33:41;13.30;99.90
8850;DHT22;5638;50.860;4.698;2023-01-05T09:36:09;13.20;99.90
8850;DHT22;5638;50.860;4.698;2023-01-05T09:38:36;13.50;99.90
8850;DHT22;5638;50.860;4.698;2023-01-05T09:43:58;13.60;99.90
8850;DHT22;5638;50.860;4.698;2023-01-05T09:46:35;13.60;99.90
8850;DHT22;5638;50.860;4.698;2023-01-05T09:49:05;13.40;99.90
8850;DHT22;5638;50.860;4.698;2023-01-05T09:51:36;13.40;99.90
8850;DHT22;5638;50.860;4.698;2023-01-05T09:54:02;13.50;99.90
8850;DHT22;5638;50.860;4.698;2023-01-05T09:56:41;13.50;99.90
8850;DHT22;5638;50.860;4.698;2023-01-05T09:59:34;13.50;99.90
8850;DHT22;5638;50.860;4.698;2023-01-05T10:05:05;13.40;99.90
8850;DHT22;5638;50.860;4.698;2023-01-05T10:07:45;13.50;99.90
8850;DHT22;5638;50.860;4.698;2023-01-05T10:13:18;13.60;99.90
8850;DHT22;5638;50.860;4.698;2023-01-05T10:15:52;13.70;99.90
8850;DHT22;5638;50.860;4.698;2023-01-05T10:18:29;13.80;99.90
8850;DHT22;5638;50.860;4.698;2023-01-05T10:21:22;13.60;99.90
8850;DHT22;5638;50.860;4.698;2023-01-05T10:29:45;13.60;99.90
8850;DHT22;5638;50.860;4.698;2023-01-05T10:32:23;13.70;99.90
8850;DHT22;5638;50.860;4.698;2023-01-05T10:34:59;13.70;99.90
8850;DHT22;5638;50.860;4.698;2023-01-05T10:37:54;13.80;99.90
8850;DHT22;5638;50.860;4.698;2023-01-05T10:40:47;13.90;99.90
8850;DHT22;5638;50.860;4.698;2023-01-05T10:46:14;14.00;99.90
8850;DHT22;5638;50.860;4.698;2023-01-05T10:48:41;14.10;99.90
8850;DHT22;5638;50.860;4.698;2023-01-05T10:51:08;14.20;99.90
8850;DHT22;5638;50.860;4.698;2023-01-05T10:53:39;14.20;99.90
8850;DHT22;5638;50.860;4.698;2023-01-05T10:56:13;14.20;99.90
8850;DHT22;5638;50.860;4.698;2023-01-05T10:58:47;14.40;99.90
8850;DHT22;5638;50.860;4.698;2023-01-05T11:01:28;14.40;99.90
8850;DHT22;5638;50.860;4.698;2023-01-05T11:04:16;14.30;99.90
8850;DHT22;5638;50.860;4.698;2023-01-05T11:06:45;14.10;99.90
8850;DHT22;5638;50.860;4.698;2023-01-05T11:11:41;14.10;99.90
8850;DHT22;5638;50.860;4.698;2023-01-05T11:14:14;14.20;99.90
8850;DHT22;5638;50.860;4.698;2023-01-05T11:16:59;14.10;99.90
8850;DHT22;5638;50.860;4.698;2023-01-05T11:19:51;14.10;99.90
8850;DHT22;5638;50.860;4.698;2023-01-05T11:22:36;14.20;99.90
8850;DHT22;5638;50.860;4.698;2023-01-05T11:25:22;14.40;99.90
8850;DHT22;5638;50.860;4.698;2023-01-05T11:30:40;14.80;99.90
8850;DHT22;5638;50.860;4.698;2023-01-05T11:33:24;14.90;99.90
8850;DHT22;5638;50.860;4.698;2023-01-05T11:35:54;15.10;99.90
8850;DHT22;5638;50.860;4.698;2023-01-05T11:38:27;15.20;99.90
8850;DHT22;5638;50.860;4.698;2023-01-05T11:40:58;15.30;99.90
8850;DHT22;5638;50.860;4.698;2023-01-05T11:43:27;15.30;99.90
8850;DHT22;5638;50.860;4.698;2023-01-05T11:46:01;15.10;99.90
8850;DHT22;5638;50.860;4.698;2023-01-05T11:48:33;14.80;99.90
8850;DHT22;5638;50.860;4.698;2023-01-05T11:51:00;14.50;99.90
8850;DHT22;5638;50.860;4.698;2023-01-05T11:56:01;14.30;99.90
8850;DHT22;5638;50.860;4.698;2023-01-05T11:58:50;14.20;99.90
8850;DHT22;5638;50.860;4.698;2023-01-05T12:02:21;14.10;99.90
8850;DHT22;5638;50.860;4.698;2023-01-05T12:05:21;14.10;99.90
8850;DHT22;5638;50.860;4.698;2023-01-05T12:07:54;14.00;99.90
8850;DHT22;5638;50.860;4.698;2023-01-05T12:14:17;14.20;99.90
8850;DHT22;5638;50.860;4.698;2023-01-05T12:16:49;14.30;99.90
8850;DHT22;5638;50.860;4.698;2023-01-05T12:22:33;14.40;99.90
8850;DHT22;5638;50.860;4.698;2023-01-05T12:28:17;14.40;99.90
8850;DHT22;5638;50.860;4.698;2023-01-05T12:43:07;14.40;99.90
8850;DHT22;5638;50.860;4.698;2023-01-05T12:48:33;14.50;99.90
8850;DHT22;5638;50.860;4.698;2023-01-05T12:51:35;14.50;99.90
8850;DHT22;5638;50.860;4.698;2023-01-05T12:54:10;14.40;99.90
8850;DHT22;5638;50.860;4.698;2023-01-05T12:56:54;14.50;99.90
8850;DHT22;5638;50.860;4.698;2023-01-05T12:59:31;14.50;99.90
8850;DHT22;5638;50.860;4.698;2023-01-05T13:04:55;14.30;99.90
8850;DHT22;5638;50.860;4.698;2023-01-05T13:07:37;14.30;99.90
8850;DHT22;5638;50.860;4.698;2023-01-05T13:10:25;14.20;99.90
8850;DHT22;5638;50.860;4.698;2023-01-05T13:13:09;14.20;99.90
8850;DHT22;5638;50.860;4.698;2023-01-05T13:15:42;14.20;99.90
8850;DHT22;5638;50.860;4.698;2023-01-05T13:18:20;14.00;99.90
8850;DHT22;5638;50.860;4.698;2023-01-05T13:20:55;13.90;99.90
8850;DHT22;5638;50.860;4.698;2023-01-05T13:24:08;14.00;99.90
8850;DHT22;5638;50.860;4.698;2023-01-05T13:26:18;14.00;99.90
8850;DHT22;5638;50.860;4.698;2023-01-05T13:28:48;13.90;99.90
8850;DHT22;5638;50.860;4.698;2023-01-05T13:37:53;13.90;99.90
8850;DHT22;5638;50.860;4.698;2023-01-05T13:43:54;13.80;99.90
8850;DHT22;5638;50.860;4.698;2023-01-05T13:52:55;13.70;99.90
8850;DHT22;5638;50.860;4.698;2023-01-05T13:55:25;13.70;99.90
8850;DHT22;5638;50.860;4.698;2023-01-05T13:57:52;13.70;99.90
8850;DHT22;5638;50.860;4.698;2023-01-05T14:00:25;13.70;99.90
8850;DHT22;5638;50.860;4.698;2023-01-05T14:03:01;13.70;99.90
8850;DHT22;5638;50.860;4.698;2023-01-05T14:08:05;13.50;99.90
8850;DHT22;5638;50.860;4.698;2023-01-05T14:13:44;13.30;99.90
8850;DHT22;5638;50.860;4.698;2023-01-05T14:27:19;13.30;99.90
8850;DHT22;5638;50.860;4.698;2023-01-05T14:34:56;13.50;99.90
8850;DHT22;5638;50.860;4.698;2023-01-05T14:37:41;13.50;99.90
8850;DHT22;5638;50.860;4.698;2023-01-05T14:40:28;13.50;99.90
8850;DHT22;5638;50.860;4.698;2023-01-05T14:43:29;13.40;99.90
8850;DHT22;5638;50.860;4.698;2023-01-05T14:46:16;13.50;99.90
8850;DHT22;5638;50.860;4.698;2023-01-05T14:49:05;13.30;99.90
8850;DHT22;5638;50.860;4.698;2023-01-05T14:51:35;13.30;99.90
8850;DHT22;5638;50.860;4.698;2023-01-05T14:54:04;13.30;99.90
8850;DHT22;5638;50.860;4.698;2023-01-05T14:56:35;13.30;99.90
8850;DHT22;5638;50.860;4.698;2023-01-05T14:59:23;13.40;99.90
8850;DHT22;5638;50.860;4.698;2023-01-05T15:01:52;13.30;99.90
8850;DHT22;5638;50.860;4.698;2023-01-05T15:04:28;13.40;99.90
8850;DHT22;5638;50.860;4.698;2023-01-05T15:07:16;13.40;99.90
8850;DHT22;5638;50.860;4.698;2023-01-05T15:14:26;13.60;99.90
8850;DHT22;5638;50.860;4.698;2023-01-05T15:28:36;13.60;99.90
8850;DHT22;5638;50.860;4.698;2023-01-05T15:34:46;13.50;99.90
8850;DHT22;5638;50.860;4.698;2023-01-05T15:37:32;13.60;99.90
8850;DHT22;5638;50.860;4.698;2023-01-05T15:40:06;13.60;99.90
8850;DHT22;5638;50.860;4.698;2023-01-05T15:43:01;13.70;99.90
8850;DHT22;5638;50.860;4.698;2023-01-05T15:45:31;13.80;99.90
8850;DHT22;5638;50.860;4.698;2023-01-05T15:48:27;13.60;99.90
8850;DHT22;5638;50.860;4.698;2023-01-05T15:50:59;13.60;99.90
8850;DHT22;5638;50.860;4.698;2023-01-05T15:53:31;13.60;99.90
8850;DHT22;5638;50.860;4.698;2023-01-05T15:58:55;13.60;99.90
8850;DHT22;5638;50.860;4.698;2023-01-05T16:01:22;13.70;99.90
8850;DHT22;5638;50.860;4.698;2023-01-05T16:03:48;13.70;99.90
8850;DHT22;5638;50.860;4.698;2023-01-05T16:06:23;13.60;99.90
8850;DHT22;5638;50.860;4.698;2023-01-05T16:08:54;13.60;99.90
8850;DHT22;5638;50.860;4.698;2023-01-05T16:11:31;13.70;99.90
8850;DHT22;5638;50.860;4.698;2023-01-05T16:14:04;13.60;99.90
8850;DHT22;5638;50.860;4.698;2023-01-05T16:16:42;13.60;99.90
8850;DHT22;5638;50.860;4.698;2023-01-05T16:22:29;13.70;99.90
8850;DHT22;5638;50.860;4.698;2023-01-05T16:27:54;13.60;99.90
8850;DHT22;5638;50.860;4.698;2023-01-05T16:30:36;13.60;99.90
8850;DHT22;5638;50.860;4.698;2023-01-05T16:44:12;13.40;99.90
8850;DHT22;5638;50.860;4.698;2023-01-05T16:48:47;13.40;99.90
8850;DHT22;5638;50.860;4.698;2023-01-05T16:51:23;13.50;99.90
8850;DHT22;5638;50.860;4.698;2023-01-05T16:54:11;13.60;99.90
8850;DHT22;5638;50.860;4.698;2023-01-05T16:59:40;13.60;99.90
8850;DHT22;5638;50.860;4.698;2023-01-05T17:05:19;13.70;99.90
8850;DHT22;5638;50.860;4.698;2023-01-05T17:08:01;13.70;99.90
8850;DHT22;5638;50.860;4.698;2023-01-05T17:10:35;13.70;99.90
8850;DHT22;5638;50.860;4.698;2023-01-05T17:13:11;13.70;99.90
8850;DHT22;5638;50.860;4.698;2023-01-05T17:15:45;13.70;99.90
8850;DHT22;5638;50.860;4.698;2023-01-05T17:18:15;13.70;99.90
8850;DHT22;5638;50.860;4.698;2023-01-05T17:20:44;13.70;99.90
8850;DHT22;5638;50.860;4.698;2023-01-05T17:23:27;13.80;99.90
8850;DHT22;5638;50.860;4.698;2023-01-05T17:25:58;13.80;99.90
8850;DHT22;5638;50.860;4.698;2023-01-05T17:28:26;13.80;99.90
8850;DHT22;5638;50.860;4.698;2023-01-05T17:30:52;13.70;99.90
8850;DHT22;5638;50.860;4.698;2023-01-05T17:33:18;13.70;99.90
8850;DHT22;5638;50.860;4.698;2023-01-05T17:35:45;13.80;99.90
8850;DHT22;5638;50.860;4.698;2023-01-05T17:38:12;13.80;99.90
8850;DHT22;5638;50.860;4.698;2023-01-05T17:40:39;13.80;99.90
8850;DHT22;5638;50.860;4.698;2023-01-05T17:43:05;13.70;99.90
8850;DHT22;5638;50.860;4.698;2023-01-05T17:45:32;13.70;99.90
8850;DHT22;5638;50.860;4.698;2023-01-05T17:47:59;13.70;99.90
8850;DHT22;5638;50.860;4.698;2023-01-05T17:50:30;13.60;99.90
8850;DHT22;5638;50.860;4.698;2023-01-05T17:52:58;13.60;99.90
8850;DHT22;5638;50.860;4.698;2023-01-05T17:55:26;13.60;99.90
8850;DHT22;5638;50.860;4.698;2023-01-05T17:57:53;13.50;99.90
8850;DHT22;5638;50.860;4.698;2023-01-05T18:00:24;13.60;99.90
8850;DHT22;5638;50.860;4.698;2023-01-05T18:02:52;13.50;99.90
8850;DHT22;5638;50.860;4.698;2023-01-05T18:05:20;13.50;99.90
8850;DHT22;5638;50.860;4.698;2023-01-05T18:07:46;13.60;99.90
8850;DHT22;5638;50.860;4.698;2023-01-05T18:10:21;13.50;99.90
8850;DHT22;5638;50.860;4.698;2023-01-05T18:12:49;13.50;99.90
8850;DHT22;5638;50.860;4.698;2023-01-05T18:15:15;13.60;99.90
8850;DHT22;5638;50.860;4.698;2023-01-05T18:17:42;13.70;99.90
8850;DHT22;5638;50.860;4.698;2023-01-05T18:20:10;13.80;99.90
8850;DHT22;5638;50.860;4.698;2023-01-05T18:22:38;13.80;99.90
8850;DHT22;5638;50.860;4.698;2023-01-05T18:25:05;13.90;99.90
8850;DHT22;5638;50.860;4.698;2023-01-05T18:27:31;13.90;99.90
8850;DHT22;5638;50.860;4.698;2023-01-05T18:30:01;13.90;99.90
8850;DHT22;5638;50.860;4.698;2023-01-05T18:32:28;13.90;99.90
8850;DHT22;5638;50.860;4.698;2023-01-05T18:34:54;13.80;99.90
8850;DHT22;5638;50.860;4.698;2023-01-05T18:37:20;13.90;99.90
8850;DHT22;5638;50.860;4.698;2023-01-05T18:39:45;13.90;99.90
8850;DHT22;5638;50.860;4.698;2023-01-05T18:42:14;13.90;99.90
8850;DHT22;5638;50.860;4.698;2023-01-05T18:44:40;14.00;99.90
8850;DHT22;5638;50.860;4.698;2023-01-05T18:47:06;13.90;99.90
8850;DHT22;5638;50.860;4.698;2023-01-05T18:49:32;14.00;99.90
8850;DHT22;5638;50.860;4.698;2023-01-05T18:51:58;13.90;99.90
8850;DHT22;5638;50.860;4.698;2023-01-05T18:54:24;13.80;99.90
8850;DHT22;5638;50.860;4.698;2023-01-05T18:56:50;13.90;99.90
8850;DHT22;5638;50.860;4.698;2023-01-05T18:59:16;13.90;99.90
8850;DHT22;5638;50.860;4.698;2023-01-05T19:01:42;13.90;99.90
8850;DHT22;5638;50.860;4.698;2023-01-05T19:04:13;14.00;99.90
8850;DHT22;5638;50.860;4.698;2023-01-05T19:06:40;14.00;99.90
8850;DHT22;5638;50.860;4.698;2023-01-05T19:09:09;14.00;99.90
8850;DHT22;5638;50.860;4.698;2023-01-05T19:11:42;14.00;99.90
8850;DHT22;5638;50.860;4.698;2023-01-05T19:14:09;13.90;99.90
8850;DHT22;5638;50.860;4.698;2023-01-05T19:16:35;14.00;99.90
8850;DHT22;5638;50.860;4.698;2023-01-05T19:19:04;13.90;99.90
8850;DHT22;5638;50.860;4.698;2023-01-05T19:21:38;14.00;99.90